Time;durP1;ratioP1;P1;durP2;ratioP2;P2;SDS_P1;SDS_P2;PMS_P1;PMS_P2;Temp;Humidity;BMP_temperature;BMP_pressure;BME280_temperature;BME280_humidity;BME280_pressure;Samples;Min_cycle;Max_cycle;Signal;HPM_P1;HPM_P2
2022/06/30 00:01:27;;;;;;;4.28;2.22;;;;;;;;;;5045897;28;20025;-82
2022/06/30 00:03:53;;;;;;;4.22;2.53;;;;;;;;;;5052262;28;20081;-82
2022/06/30 00:06:19;;;;;;;3.67;2.30;;;;;;;;;;5049126;28;20033;-82
2022/06/30 00:08:45;;;;;;;4.85;2.33;;;;;;;;;;5051634;28;20191;-82
2022/06/30 00:11:11;;;;;;;3.45;2.22;;;;;;;;;;5043666;28;20035;-81
2022/06/30 00:13:38;;;;;;;5.65;2.58;;;;;;;;;;5041680;28;20049;-81
2022/06/30 00:16:05;;;;;;;4.93;2.45;;;;;;;;;;5045544;28;20032;-83
2022/06/30 00:18:31;;;;;;;4.20;2.63;;;;;;;;;;5050001;28;20056;-82
2022/06/30 00:20:57;;;;;;;5.70;2.40;;;;;;;;;;5052944;28;20059;-82
2022/06/30 00:23:23;;;;;;;5.28;2.45;;;;;;;;;;5054774;28;20440;-82
2022/06/30 00:25:49;;;;;;;3.75;2.00;;;;;;;;;;5048568;28;20047;-81
2022/06/30 00:28:15;;;;;;;4.97;2.97;;;;;;;;;;5046412;28;20025;-83
2022/06/30 00:30:41;;;;;;;9.05;2.05;;;;;;;;;;5046611;28;20033;-82
2022/06/30 00:33:06;;;;;;;5.75;2.55;;;19.20;99.90;;;;;;5054326;28;20045;-83
2022/06/30 00:35:32;;;;;;;6.35;2.65;;;;;;;;;;5046559;28;20034;-82
2022/06/30 00:37:58;;;;;;;4.80;2.65;;;;;;;;;;5057511;28;20254;-83
2022/06/30 00:40:24;;;;;;;4.30;2.85;;;;;;;;;;5049669;28;20037;-82
2022/06/30 00:42:50;;;;;;;8.18;2.90;;;;;;;;;;5049785;28;20592;-82
2022/06/30 00:45:16;;;;;;;3.72;2.33;;;;;;;;;;5048428;28;20052;-82
2022/06/30 00:47:42;;;;;;;4.18;2.67;;;;;;;;;;5052186;28;20033;-83
2022/06/30 00:50:08;;;;;;;7.88;2.78;;;18.90;99.90;;;;;;5049393;28;20621;-81
2022/06/30 00:52:37;;;;;;;5.25;2.53;;;;;;;;;;5046379;28;20043;-83
2022/06/30 00:55:06;;;;;;;8.48;2.97;;;;;;;;;;5053066;28;20040;-82
2022/06/30 00:57:34;;;;;;;9.15;3.08;;;18.60;99.90;;;;;;5047752;28;20036;-82
2022/06/30 01:00:02;;;;;;;3.95;2.47;;;;;;;;;;5049377;28;20043;-82
2022/06/30 01:02:28;;;;;;;4.25;2.42;;;;;;;;;;5041138;28;20036;-82
2022/06/30 01:04:54;;;;;;;4.97;2.58;;;;;;;;;;5043212;28;20083;-81
2022/06/30 01:07:21;;;;;;;4.43;2.80;;;19.20;99.90;;;;;;5048743;28;23613;-81
2022/06/30 01:12:41;;;;;;;5.63;2.50;;;;;;;;;;5055111;28;20094;-81
2022/06/30 01:15:08;;;;;;;6.20;2.90;;;;;;;;;;5046185;28;20025;-81
2022/06/30 01:17:33;;;;;;;4.53;2.65;;;;;;;;;;5050659;28;20048;-81
2022/06/30 01:20:00;;;;;;;5.78;2.30;;;;;;;;;;5046187;28;20500;-81
2022/06/30 01:22:26;;;;;;;3.78;2.30;;;;;;;;;;5042445;28;20039;-81
2022/06/30 01:24:52;;;;;;;3.30;2.33;;;;;;;;;;5056153;28;20453;-82
2022/06/30 01:27:18;;;;;;;8.60;3.03;;;;;;;;;;5046724;28;20038;-82
2022/06/30 01:29:45;;;;;;;4.00;2.45;;;;;;;;;;5046025;28;20092;-81
2022/06/30 01:32:11;;;;;;;6.10;2.05;;;;;;;;;;5048777;28;20044;-81
2022/06/30 01:34:37;;;;;;;10.02;3.10;;;;;;;;;;5047857;28;20050;-81
2022/06/30 01:37:03;;;;;;;6.20;3.45;;;;;;;;;;5035394;28;20124;-82
2022/06/30 01:39:29;;;;;;;7.80;3.13;;;;;;;;;;5050743;28;20025;-81
2022/06/30 01:41:55;;;;;;;4.97;2.30;;;;;;;;;;5046047;28;20027;-80
2022/06/30 01:44:21;;;;;;;4.95;2.72;;;;;;;;;;5052188;28;20032;-82
2022/06/30 01:46:48;;;;;;;4.10;1.98;;;;;;;;;;5050077;28;20040;-83
2022/06/30 01:49:14;;;;;;;6.53;2.45;;;;;;;;;;5049748;28;20027;-82
2022/06/30 01:51:40;;;;;;;4.38;2.55;;;;;;;;;;5044275;28;20047;-82
2022/06/30 01:54:05;;;;;;;4.38;2.55;;;17.30;99.90;;;;;;5054407;28;20542;-81
2022/06/30 01:56:31;;;;;;;5.03;2.50;;;;;;;;;;5049929;28;20043;-82
2022/06/30 01:58:57;;;;;;;4.28;2.72;;;;;;;;;;5045602;28;20141;-81
2022/06/30 02:01:23;;;;;;;3.08;1.90;;;;;;;;;;5040290;28;20026;-81
2022/06/30 02:03:49;;;;;;;5.47;3.03;;;;;;;;;;5051213;28;20055;-83
2022/06/30 02:06:15;;;;;;;3.20;2.00;;;;;;;;;;5045699;28;20032;-82
2022/06/30 02:08:41;;;;;;;2.55;1.95;;;;;;;;;;5048847;28;20029;-82
2022/06/30 02:11:07;;;;;;;4.22;2.22;;;;;;;;;;5050638;28;20040;-82
2022/06/30 02:13:33;;;;;;;6.93;2.20;;;;;;;;;;5043665;28;20044;-82
2022/06/30 02:15:59;;;;;;;4.38;2.53;;;;;;;;;;5043334;28;20095;-82
2022/06/30 02:18:25;;;;;;;5.50;2.40;;;;;;;;;;5053658;28;20048;-81
2022/06/30 02:20:51;;;;;;;6.45;3.65;;;;;;;;;;5048152;28;20021;-82
2022/06/30 02:23:17;;;;;;;4.50;2.85;;;;;;;;;;5051770;28;20040;-82
2022/06/30 02:25:43;;;;;;;6.22;2.78;;;;;;;;;;5043951;28;20407;-81
2022/06/30 02:28:09;;;;;;;4.95;2.90;;;;;;;;;;5050045;28;20037;-82
2022/06/30 02:30:35;;;;;;;5.85;3.05;;;;;;;;;;5048684;28;20035;-81
2022/06/30 02:33:01;;;;;;;4.32;2.60;;;;;;;;;;5049878;28;20076;-82
2022/06/30 02:35:27;;;;;;;5.70;3.22;;;;;;;;;;5046428;28;20033;-83
2022/06/30 02:37:54;;;;;;;7.22;3.30;;;;;;;;;;5050958;28;20025;-81
2022/06/30 02:40:20;;;;;;;5.38;3.08;;;;;;;;;;5047900;28;20599;-81
2022/06/30 02:42:46;;;;;;;5.70;3.13;;;;;;;;;;5042283;28;20033;-83
2022/06/30 02:45:12;;;;;;;4.75;2.55;;;;;;;;;;5046142;28;20043;-83
2022/06/30 02:47:39;;;;;;;4.50;2.75;;;;;;;;;;5043616;28;20718;-82
2022/06/30 02:50:08;;;;;;;4.45;2.65;;;17.00;99.90;;;;;;5042209;28;20470;-83
2022/06/30 02:52:35;;;;;;;7.47;2.67;;;;;;;;;;5043186;28;20045;-82
2022/06/30 02:55:01;;;;;;;4.18;2.30;;;17.90;99.90;;;;;;5052108;28;20438;-82
2022/06/30 02:57:28;;;;;;;6.13;2.78;;;;;;;;;;5046500;28;20472;-81
2022/06/30 02:59:54;;;;;;;5.18;2.80;;;;;;;;;;5048041;28;20029;-81
2022/06/30 03:02:20;;;;;;;6.57;3.00;;;;;;;;;;5049667;28;20090;-82
2022/06/30 03:04:46;;;;;;;5.68;3.05;;;;;;;;;;5053768;28;20060;-82
2022/06/30 03:07:12;;;;;;;4.38;2.45;;;;;;;;;;5058567;28;20040;-82
2022/06/30 03:09:38;;;;;;;6.68;2.67;;;;;;;;;;5046698;28;20033;-83
2022/06/30 03:12:04;;;;;;;5.75;2.85;;;;;;;;;;5042964;28;20491;-82
2022/06/30 03:14:30;;;;;;;4.57;3.17;;;;;;;;;;5045874;28;20234;-83
2022/06/30 03:16:56;;;;;;;4.88;2.45;;;;;;;;;;5054159;28;20052;-82
2022/06/30 03:19:22;;;;;;;7.55;2.55;;;;;;;;;;5054718;28;20020;-82
2022/06/30 03:21:49;;;;;;;8.15;3.05;;;;;;;;;;5049612;28;20029;-82
2022/06/30 03:24:15;;;;;;;3.72;2.33;;;;;;;;;;5051398;28;20280;-83
2022/06/30 03:26:41;;;;;;;7.15;3.00;;;;;;;;;;5054494;28;20294;-83
2022/06/30 03:29:07;;;;;;;4.55;2.78;;;;;;;;;;5049278;28;20033;-83
2022/06/30 03:31:33;;;;;;;7.22;2.92;;;;;;;;;;5037915;28;20473;-82
2022/06/30 03:33:59;;;;;;;7.63;2.65;;;;;;;;;;5046962;28;20086;-82
2022/06/30 03:36:25;;;;;;;5.55;3.17;;;;;;;;;;5052300;28;20029;-82
2022/06/30 03:38:51;;;;;;;6.18;3.25;;;;;;;;;;5054139;28;20032;-83
2022/06/30 03:41:17;;;;;;;4.75;2.50;;;;;;;;;;5055991;28;20481;-82
2022/06/30 03:43:43;;;;;;;4.75;2.97;;;;;;;;;;5043722;28;20051;-83
2022/06/30 03:46:09;;;;;;;4.32;2.75;;;;;;;;;;5047983;28;20473;-82
2022/06/30 03:48:36;;;;;;;4.10;2.42;;;;;;;;;;5057808;28;20051;-82
2022/06/30 03:51:05;;;;;;;7.20;2.45;;;;;;;;;;5052655;28;20028;-82
2022/06/30 03:53:31;;;;;;;3.45;2.03;;;;;;;;;;5044898;28;20048;-82
2022/06/30 03:55:57;;;;;;;4.75;2.70;;;;;;;;;;5050578;28;20021;-81
2022/06/30 03:58:23;;;;;;;13.55;3.00;;;;;;;;;;5050048;28;20027;-82
2022/06/30 04:00:49;;;;;;;4.35;2.28;;;;;;;;;;5048582;28;20469;-83
2022/06/30 04:03:15;;;;;;;10.75;2.83;;;;;;;;;;5045689;28;20074;-83
2022/06/30 04:05:41;;;;;;;7.43;3.38;;;;;;;;;;5046514;28;20017;-82
2022/06/30 04:08:08;;;;;;;6.18;3.40;;;;;;;;;;5049955;28;20032;-83
2022/06/30 04:10:34;;;;;;;7.30;2.45;;;;;;;;;;5047902;28;20035;-82
2022/06/30 04:13:00;;;;;;;3.88;2.45;;;;;;;;;;5042061;28;20161;-83
2022/06/30 04:15:27;;;;;;;6.43;3.10;;;;;;;;;;5046355;28;20033;-82
2022/06/30 04:17:53;;;;;;;4.03;2.53;;;;;;;;;;5048113;28;20032;-82
2022/06/30 04:20:19;;;;;;;7.22;3.25;;;;;;;;;;5052613;28;20091;-82
2022/06/30 04:22:46;;;;;;;5.80;3.03;;;;;;;;;;5047210;28;20033;-84
2022/06/30 04:25:13;;;;;;;5.43;2.65;;;;;;;;;;5040550;28;20029;-82
2022/06/30 04:27:46;;;;;;;4.55;2.55;;;16.40;99.90;;;;;;5046530;28;23505;-83
2022/06/30 04:30:13;;;;;;;5.35;2.40;;;;;;;;;;5047822;28;20117;-83
2022/06/30 04:32:39;;;;;;;12.13;5.05;;;;;;;;;;5041699;28;20060;-82
2022/06/30 04:35:06;;;;;;;3.88;2.38;;;;;;;;;;5029492;28;20753;-83
2022/06/30 04:37:33;;;;;;;5.47;2.63;;;;;;;;;;5040709;28;20032;-82
2022/06/30 04:42:43;;;;;;;3.75;2.50;;;;;;;;;;5040811;28;20539;-81
2022/06/30 04:45:09;;;;;;;7.03;3.08;;;;;;;;;;5049256;28;20036;-81
2022/06/30 04:47:36;;;;;;;7.32;3.08;;;17.10;99.90;;;;;;5047604;28;20032;-83
2022/06/30 04:50:06;;;;;;;3.95;2.28;;;;;;;;;;5044977;28;20481;-82
2022/06/30 04:52:32;;;;;;;7.50;3.60;;;;;;;;;;5046919;28;20132;-82
2022/06/30 04:54:57;;;;;;;12.00;3.65;;;17.30;99.90;;;;;;5042913;28;20040;-84
2022/06/30 04:57:23;;;;;;;5.10;3.13;;;18.30;99.90;;;;;;5035138;28;20033;-83
2022/06/30 04:59:49;;;;;;;6.25;3.78;;;;;;;;;;5037362;28;20025;-82
2022/06/30 05:02:15;;;;;;;5.47;3.50;;;;;;;;;;5042639;28;20029;-82
2022/06/30 05:04:43;;;;;;;9.80;2.63;;;;;;;;;;5034627;28;20060;-82
2022/06/30 05:07:09;;;;;;;9.73;3.05;;;;;;;;;;5045201;28;20040;-81
2022/06/30 05:09:35;;;;;;;4.35;3.45;;;;;;;;;;5039855;28;20054;-81
2022/06/30 05:12:01;;;;;;;4.03;2.40;;;;;;;;;;5038690;28;20477;-81
2022/06/30 05:14:27;;;;;;;4.38;2.70;;;;;;;;;;5043709;28;20151;-83
2022/06/30 05:16:53;;;;;;;4.43;3.30;;;;;;;;;;5043793;28;21312;-81
2022/06/30 05:19:19;;;;;;;5.97;3.03;;;;;;;;;;5051808;28;20037;-81
2022/06/30 05:21:45;;;;;;;6.05;3.42;;;;;;;;;;5042229;28;20107;-81
2022/06/30 05:26:55;;;;;;;3.70;2.22;;;;;;;;;;5039831;28;20032;-83
2022/06/30 05:29:21;;;;;;;7.72;3.40;;;19.10;99.90;;;;;;5030934;28;20024;-83
2022/06/30 05:31:47;;;;;;;6.35;3.78;;;;;;;;;;5043299;28;20740;-80
2022/06/30 05:34:13;;;;;;;6.55;2.65;;;;;;;;;;5047532;28;20116;-83
2022/06/30 05:36:39;;;;;;;6.57;3.25;;;;;;;;;;5041890;28;20017;-85
2022/06/30 05:39:05;;;;;;;5.55;3.10;;;;;;;;;;5047524;28;20049;-84
2022/06/30 05:41:31;;;;;;;8.98;2.95;;;;;;;;;;5047941;28;20456;-82
2022/06/30 05:43:57;;;;;;;4.75;2.97;;;;;;;;;;5052292;28;20032;-85
2022/06/30 05:46:23;;;;;;;7.28;3.33;;;;;;;;;;5050561;28;20115;-87
2022/06/30 05:48:49;;;;;;;7.15;3.08;;;;;;;;;;5066628;28;20044;-80
2022/06/30 05:51:15;;;;;;;5.15;3.53;;;;;;;;;;5071557;28;20056;-80
2022/06/30 05:53:41;;;;;;;4.70;3.13;;;;;;;;;;5072179;28;20051;-80
2022/06/30 05:56:08;;;;;;;7.47;2.50;;;;;;;;;;5051862;28;20044;-81
2022/06/30 05:58:34;;;;;;;6.32;3.33;;;;;;;;;;5042254;28;20044;-84
2022/06/30 06:01:00;;;;;;;6.40;2.95;;;;;;;;;;5044680;28;20301;-82
2022/06/30 06:03:26;;;;;;;5.85;2.92;;;;;;;;;;5047578;28;20059;-84
2022/06/30 06:05:52;;;;;;;6.20;3.13;;;;;;;;;;5042932;28;20024;-81
2022/06/30 06:08:18;;;;;;;5.90;3.60;;;;;;;;;;5040658;28;20058;-82
2022/06/30 06:10:44;;;;;;;7.30;3.22;;;;;;;;;;5042842;28;20025;-84
2022/06/30 06:13:11;;;;;;;5.55;2.97;;;;;;;;;;5047925;28;20037;-82
2022/06/30 06:15:37;;;;;;;3.75;2.17;;;;;;;;;;5035251;28;20029;-81
2022/06/30 06:18:03;;;;;;;8.23;2.00;;;;;;;;;;5039611;28;20048;-81
2022/06/30 06:20:29;;;;;;;4.18;2.58;;;;;;;;;;5036888;28;20033;-81
2022/06/30 06:22:55;;;;;;;7.30;2.70;;;;;;;;;;5043023;28;20036;-81
2022/06/30 06:25:22;;;;;;;3.03;2.05;;;;;;;;;;5034889;28;20433;-81
2022/06/30 06:30:33;;;;;;;4.55;2.17;;;;;;;;;;5042262;28;20083;-79
2022/06/30 06:32:59;;;;;;;5.22;2.28;;;;;;;;;;5039534;28;20052;-82
2022/06/30 06:35:25;;;;;;;2.83;1.88;;;27.40;99.90;;;;;;5036511;28;20037;-81
2022/06/30 06:37:51;;;;;;;5.70;1.60;;;;;;;;;;5044932;28;20028;-80
2022/06/30 06:40:17;;;;;;;;;;;31.60;95.50;;;;;;5040032;28;20131;-80
2022/06/30 06:42:42;;;;;;;;;;;33.30;91.40;;;;;;5047637;28;20088;-80
2022/06/30 06:45:08;;;;;;;;;;;34.40;84.80;;;;;;5044348;28;19979;-81
2022/06/30 06:47:37;;;;;;;2.88;1.20;;;;;;;;;;5050555;28;19909;-79
2022/06/30 06:50:04;;;;;;;2.88;1.38;;;;;;;;;;5046718;28;20040;-82
2022/06/30 06:52:29;;;;;;;1.98;1.00;;;;;;;;;;5046682;28;20060;-80
2022/06/30 06:54:56;;;;;;;1.42;1.13;;;;;;;;;;5041819;28;20029;-81
2022/06/30 06:57:22;;;;;;;2.40;1.00;;;;;;;;;;5044081;28;20094;-82
2022/06/30 06:59:48;;;;;;;3.10;1.25;;;;;;;;;;5021529;28;20025;-80
2022/06/30 07:02:14;;;;;;;1.80;0.88;;;;;;;;;;5039616;28;20087;-82
2022/06/30 07:04:40;;;;;;;2.72;1.17;;;;;;;;;;5045978;28;20037;-80
2022/06/30 07:07:06;;;;;;;1.35;1.25;;;;;;;;;;5025335;28;20075;-80
2022/06/30 07:09:32;;;;;;;1.73;1.13;;;40.70;57.00;;;;;;5048234;28;20024;-82
2022/06/30 07:11:58;;;;;;;3.53;1.17;;;;;;;;;;5042359;28;20062;-81
2022/06/30 07:14:24;;;;;;;2.13;0.90;;;;;;;;;;5027573;28;20025;-80
2022/06/30 07:16:50;;;;;;;1.35;1.13;;;;;;;;;;5029368;28;20045;-80
2022/06/30 07:19:16;;;;;;;2.05;1.08;;;;;;;;;;5050602;28;20024;-80
2022/06/30 07:21:42;;;;;;;1.48;0.82;;;;;;;;;;5044246;28;20024;-80
2022/06/30 07:24:08;;;;;;;1.60;1.00;;;;;;;;;;5042150;28;20033;-80
2022/06/30 07:26:34;;;;;;;1.75;0.63;;;;;;;;;;5049161;28;20040;-80
2022/06/30 07:29:00;;;;;;;1.15;0.77;;;;;;;;;;5040514;28;20025;-76
2022/06/30 07:31:26;;;;;;;1.15;0.90;;;;;;;;;;5031052;28;20433;-80
2022/06/30 07:33:52;;;;;;;0.77;0.52;;;39.00;54.40;;;;;;5040053;28;20127;-81
2022/06/30 07:36:18;;;;;;;2.17;0.93;;;;;;;;;;5022189;28;20111;-80
2022/06/30 07:38:45;;;;;;;4.63;1.02;;;;;;;;;;5048700;28;20033;-80
2022/06/30 07:41:12;;;;;;;1.88;0.70;;;;;;;;;;5045860;28;20866;-80
2022/06/30 07:43:38;;;;;;;;;;;37.40;46.10;;;;;;5046325;28;20124;-80
2022/06/30 07:46:04;;;;;;;;;;;36.90;45.30;;;;;;5046331;28;19913;-79
2022/06/30 07:48:29;;;;;;;;;;;36.70;46.70;;;;;;5047661;28;20331;-79
2022/06/30 07:50:55;;;;;;;;;;;;;;;;;;5039866;28;19917;-81
2022/06/30 07:53:20;;;;;;;;;;;38.30;46.00;;;;;;5038640;28;20028;-79
2022/06/30 07:55:46;;;;;;;;;;;38.40;46.60;;;;;;5045764;28;19912;-81
2022/06/30 07:58:11;;;;;;;;;;;36.60;47.00;;;;;;5053023;28;19909;-81
2022/06/30 08:00:37;;;;;;;;;;;36.00;48.90;;;;;;5039563;28;19923;-81
2022/06/30 08:03:02;;;;;;;;;;;35.90;48.80;;;;;;5048949;28;20376;-82
2022/06/30 08:05:28;;;;;;;;;;;37.20;48.30;;;;;;5045165;28;19916;-80
2022/06/30 08:07:54;;;;;;;;;;;36.90;47.50;;;;;;5052798;28;20010;-82
2022/06/30 08:10:19;;;;;;;;;;;37.90;46.00;;;;;;5039118;28;19910;-79
2022/06/30 08:12:45;;;;;;;;;;;37.40;45.40;;;;;;5050768;28;19970;-80
2022/06/30 08:15:10;;;;;;;;;;;37.70;43.70;;;;;;5036336;28;19909;-82
2022/06/30 08:17:36;;;;;;;;;;;37.70;44.60;;;;;;5044997;28;19920;-79
2022/06/30 08:20:01;;;;;;;;;;;35.80;46.50;;;;;;5047376;28;19920;-79
2022/06/30 08:22:27;;;;;;;;;;;36.00;48.00;;;;;;5044770;28;19916;-82
2022/06/30 08:24:52;;;;;;;;;;;35.30;50.90;;;;;;5047262;28;19919;-79
2022/06/30 08:27:18;;;;;;;;;;;34.60;49.10;;;;;;5044389;28;19917;-82
2022/06/30 08:29:43;;;;;;;;;;;34.40;48.50;;;;;;5044563;28;20003;-81
2022/06/30 08:32:09;;;;;;;;;;;34.30;49.20;;;;;;5040800;28;19916;-81
2022/06/30 08:34:35;;;;;;;1.98;1.02;;;;;;;;;;5046290;28;20365;-81
2022/06/30 08:37:01;;;;;;;1.15;0.75;;;;;;;;;;5049271;28;20021;-83
2022/06/30 08:42:12;;;;;;;2.63;0.93;;;;;;;;;;5034362;28;20397;-82
2022/06/30 08:44:40;;;;;;;3.13;0.80;;;;;;;;;;5053173;28;20433;-83
2022/06/30 08:47:07;;;;;;;2.00;0.80;;;;;;;;;;5048502;28;20922;-83
2022/06/30 08:49:34;;;;;;;0.95;0.70;;;;;;;;;;5051658;28;21140;-81
2022/06/30 08:52:01;;;;;;;2.42;0.80;;;;;;;;;;5047652;28;20473;-82
2022/06/30 08:54:28;;;;;;;2.35;0.95;;;43.50;44.90;;;;;;5041266;28;20774;-82
2022/06/30 08:56:55;;;;;;;1.15;0.70;;;;;;;;;;5040122;28;20876;-83
2022/06/30 08:59:22;;;;;;;0.93;0.60;;;;;;;;;;5047917;28;20397;-83
2022/06/30 09:01:48;;;;;;;1.73;0.60;;;;;;;;;;5039001;28;20402;-82
2022/06/30 09:04:14;;;;;;;2.60;0.70;;;;;;;;;;5043286;28;20405;-83
2022/06/30 09:06:44;;;;;;;1.83;0.50;;;45.00;39.20;;;;;;5045125;28;20410;-83
2022/06/30 09:09:10;;;;;;;4.00;1.10;;;;;;;;;;5040817;28;20418;-80
2022/06/30 09:11:48;;;;;;;5.05;0.82;;;44.20;30.00;;;;;;5039652;28;20405;-79
2022/06/30 09:14:42;;;;;;;1.00;0.70;;;44.50;32.40;;;;;;5049030;28;20135;-81
2022/06/30 09:17:14;;;;;;;1.75;0.65;;;46.00;34.70;;;;;;5040596;28;20044;-83
2022/06/30 09:20:08;;;;;;;1.00;0.60;;;45.90;29.80;;;;;;5038676;28;20053;-80
2022/06/30 09:22:39;;;;;;;3.13;0.63;;;45.80;29.40;;;;;;5045729;28;20033;-82
2022/06/30 09:25:09;;;;;;;;;;;45.80;30.00;;;;;;5036414;28;20032;-81
2022/06/30 09:27:47;;;;;;;0.77;0.63;;;;;;;;;;5049382;28;19908;-81
2022/06/30 09:30:16;;;;;;;0.83;0.67;;;42.70;33.40;;;;;;5047437;28;20408;-82
2022/06/30 09:32:47;;;;;;;;;;;41.80;36.60;;;;;;5038585;28;20368;-80
2022/06/30 09:35:13;;;;;;;;;;;40.70;35.90;;;;;;5041829;28;20001;-80
2022/06/30 09:37:39;;;;;;;;;;;;;;;;;;5042167;28;20400;-79
2022/06/30 09:40:06;;;;;;;;;;;38.60;38.70;;;;;;5045839;28;19970;-84
2022/06/30 09:42:36;;;;;;;;;;;38.40;38.00;;;;;;5040094;28;19917;-83
2022/06/30 09:45:02;;;;;;;2.55;1.02;;;35.90;49.80;;;;;;5041496;28;20104;-84
2022/06/30 09:47:28;;;;;;;;;;;36.80;41.60;;;;;;5047197;28;20033;-82
2022/06/30 09:49:54;;;;;;;;;;;34.90;44.30;;;;;;5050469;28;19913;-82
2022/06/30 09:52:22;;;;;;;;;;;34.70;45.10;;;;;;5043531;28;19917;-81
2022/06/30 09:55:19;;;;;;;;;;;34.50;44.90;;;;;;5042107;28;19939;-80
2022/06/30 09:57:45;;;;;;;1.88;1.17;;;;;;;;;;5030408;28;20384;-81
2022/06/30 10:00:13;;;;;;;1.00;0.70;;;;;;;;;;5040478;28;20479;-83
2022/06/30 10:02:46;;;;;;;3.20;1.00;;;;;;;;;;5038650;28;20405;-82
2022/06/30 10:05:14;;;;;;;1.75;0.73;;;;;;;;;;5046959;28;20416;-80
2022/06/30 10:07:40;;;;;;;2.72;0.90;;;;;;;;;;5043402;28;20417;-82
2022/06/30 10:10:10;;;;;;;1.30;0.73;;;;;;;;;;5042253;28;20412;-84
2022/06/30 10:12:36;;;;;;;4.55;1.38;;;33.50;58.50;;;;;;5043764;28;20540;-83
2022/06/30 10:15:03;;;;;;;1.27;0.80;;;;;;;;;;5051872;28;20914;-84
2022/06/30 10:17:34;;;;;;;1.60;0.90;;;;;;;;;;5048295;28;20406;-83
2022/06/30 10:20:00;;;;;;;2.65;0.85;;;32.80;60.30;;;;;;5049280;28;20405;-82
2022/06/30 10:22:27;;;;;;;5.90;1.00;;;;;;;;;;5045388;28;20469;-81
2022/06/30 10:24:54;;;;;;;1.53;0.90;;;;;;;;;;5042790;28;20936;-85
2022/06/30 10:27:21;;;;;;;2.20;0.70;;;32.90;62.50;;;;;;5050622;28;20504;-83
2022/06/30 10:29:52;;;;;;;5.50;1.23;;;;;;;;;;5049855;28;20401;-80
2022/06/30 10:32:24;;;;;;;8.48;1.60;;;;;;;;;;5043288;28;20954;-84
2022/06/30 10:34:55;;;;;;;2.00;0.90;;;;;;;;;;5047899;28;20413;-85
2022/06/30 10:37:26;;;;;;;1.63;0.90;;;;;;;;;;5053621;28;20401;-84
2022/06/30 10:40:19;;;;;;;1.60;1.05;;;;;;;;;;5050754;28;20397;-79
2022/06/30 10:42:48;;;;;;;1.97;0.93;;;33.20;57.20;;;;;;5021611;28;20405;-82
2022/06/30 10:45:26;;;;;;;3.22;0.95;;;33.20;57.10;;;;;;5053253;28;20456;-84
2022/06/30 10:47:59;;;;;;;1.70;0.70;;;;;;;;;;5047866;28;20416;-85
2022/06/30 10:50:34;;;;;;;2.03;0.80;;;;;;;;;;5053203;28;20402;-81
2022/06/30 10:53:01;;;;;;;1.87;0.70;;;;;;;;;;5068002;28;20421;-80
2022/06/30 10:55:27;;;;;;;2.83;1.00;;;;;;;;;;5060000;28;20657;-79
2022/06/30 10:57:59;;;;;;;1.13;0.70;;;;;;;;;;5060613;28;20421;-80
2022/06/30 11:00:45;;;;;;;4.30;0.90;;;;;;;;;;5047692;28;20404;-82
2022/06/30 11:03:29;;;;;;;2.47;0.70;;;32.80;59.10;;;;;;5042098;28;20397;-81
2022/06/30 11:05:55;;;;;;;1.52;0.93;;;;;;;;;;5044742;28;20406;-81
2022/06/30 11:08:36;;;;;;;1.23;0.70;;;;;;;;;;5048169;28;20587;-83
2022/06/30 11:11:22;;;;;;;1.10;0.70;;;;;;;;;;5042458;28;20614;-80
2022/06/30 11:14:03;;;;;;;1.95;1.00;;;;;;;;;;5036871;28;20424;-81
2022/06/30 11:16:30;;;;;;;4.00;1.00;;;;;;;;;;5048277;28;20405;-80
2022/06/30 11:18:56;;;;;;;1.80;0.98;;;;;;;;;;5043784;28;20401;-81
2022/06/30 11:21:22;;;;;;;1.80;0.90;;;;;;;;;;5034933;28;20464;-81
2022/06/30 11:23:49;;;;;;;1.75;0.70;;;;;;;;;;5041804;28;20436;-81
2022/06/30 11:29:13;;;;;;;2.38;0.80;;;;;;;;;;4991574;28;20941;-80
2022/06/30 11:31:40;;;;;;;2.23;0.97;;;;;;;;;;5034149;28;20414;-80
2022/06/30 11:34:06;;;;;;;1.60;0.80;;;;;;;;;;5043088;28;22338;-80
2022/06/30 11:36:33;;;;;;;1.35;0.80;;;;;;;;;;5041603;28;20434;-81
2022/06/30 11:39:00;;;;;;;3.60;0.80;;;;;;;;;;5043128;28;20405;-79
2022/06/30 11:44:12;;;;;;;1.88;0.80;;;;;;;;;;5044224;28;20402;-80
2022/06/30 11:46:50;;;;;;;3.28;1.08;;;;;;;;;;5045225;28;20406;-82
2022/06/30 11:49:16;;;;;;;2.65;1.02;;;;;;;;;;5038489;28;20540;-81
2022/06/30 11:51:43;;;;;;;1.40;0.73;;;;;;;;;;5030388;28;20923;-79
2022/06/30 11:54:09;;;;;;;2.20;0.70;;;;;;;;;;5047266;28;20421;-81
2022/06/30 11:56:53;;;;;;;1.40;0.90;;;;;;;;;;5044908;28;20432;-82
2022/06/30 11:59:19;;;;;;;2.25;1.00;;;;;;;;;;5047326;28;20409;-80
2022/06/30 12:02:01;;;;;;;3.20;0.80;;;;;;;;;;5046622;28;20800;-83
2022/06/30 12:04:27;;;;;;;3.15;1.30;;;;;;;;;;5044064;28;20492;-81
2022/06/30 12:06:53;;;;;;;1.47;0.77;;;;;;;;;;5046669;28;20433;-80
2022/06/30 12:09:19;;;;;;;4.72;1.20;;;;;;;;;;5043012;28;20445;-82
2022/06/30 12:11:46;;;;;;;2.72;0.90;;;;;;;;;;5041266;28;20434;-81
2022/06/30 12:14:12;;;;;;;3.13;1.20;;;;;;;;;;5045618;28;20555;-81
2022/06/30 12:16:38;;;;;;;2.00;0.90;;;;;;;;;;5049617;28;20408;-79
2022/06/30 12:19:04;;;;;;;1.50;0.80;;;33.70;58.60;;;;;;5048296;28;20776;-83
2022/06/30 12:21:30;;;;;;;2.28;0.80;;;;;;;;;;5036601;28;20504;-80
2022/06/30 12:23:56;;;;;;;2.23;0.90;;;;;;;;;;5039114;28;20423;-82
2022/06/30 12:26:23;;;;;;;2.20;0.80;;;;;;;;;;5039943;28;21038;-80
2022/06/30 12:28:55;;;;;;;3.45;1.10;;;33.10;58.60;;;;;;5041681;28;20475;-80
2022/06/30 12:31:25;;;;;;;1.73;0.82;;;;;;;;;;5037302;28;20413;-80
2022/06/30 12:33:53;;;;;;;2.50;1.20;;;;;;;;;;5027368;28;20431;-80
2022/06/30 12:36:19;;;;;;;1.55;1.00;;;;;;;;;;5030869;28;20433;-82
2022/06/30 12:38:45;;;;;;;2.33;0.80;;;;;;;;;;5046882;28;20503;-81
2022/06/30 12:41:12;;;;;;;2.35;1.02;;;;;;;;;;5043425;28;20443;-80
2022/06/30 12:44:04;;;;;;;2.40;0.88;;;;;;;;;;5041430;28;20418;-80
2022/06/30 12:46:40;;;;;;;2.17;0.75;;;33.40;60.40;;;;;;5045569;28;20413;-81
2022/06/30 12:49:07;;;;;;;2.87;0.80;;;;;;;;;;5042282;28;20412;-79
2022/06/30 12:51:35;;;;;;;1.52;0.85;;;;;;;;;;5041773;28;20984;-80
2022/06/30 12:54:07;;;;;;;1.90;0.93;;;;;;;;;;5040910;28;20446;-81
2022/06/30 12:56:34;;;;;;;3.35;0.75;;;33.60;57.20;;;;;;5047838;28;20396;-83
2022/06/30 12:59:02;;;;;;;4.57;1.10;;;;;;;;;;5038684;28;20506;-82
2022/06/30 13:01:30;;;;;;;3.05;1.13;;;;;;;;;;5033829;28;20407;-84
2022/06/30 13:04:00;;;;;;;2.75;1.10;;;;;;;;;;5042259;28;20508;-85
2022/06/30 13:06:27;;;;;;;1.20;0.80;;;;;;;;;;5036548;28;21004;-82
2022/06/30 13:08:53;;;;;;;2.60;1.00;;;;;;;;;;5039950;28;20423;-83
2022/06/30 13:11:23;;;;;;;1.50;0.80;;;;;;;;;;5035887;28;20436;-84
2022/06/30 13:13:49;;;;;;;0.90;0.70;;;;;;;;;;5044219;28;20424;-82
2022/06/30 13:16:16;;;;;;;2.10;0.97;;;;;;;;;;5048737;28;20431;-80
2022/06/30 13:18:42;;;;;;;3.13;0.98;;;;;;;;;;5047961;28;20716;-83
2022/06/30 13:21:08;;;;;;;3.00;1.00;;;;;;;;;;5030506;28;20414;-83
2022/06/30 13:23:35;;;;;;;2.00;1.20;;;;;;;;;;5040647;28;20872;-83
2022/06/30 13:26:01;;;;;;;2.15;1.10;;;;;;;;;;5040168;28;20389;-82
2022/06/30 13:28:27;;;;;;;2.60;1.00;;;;;;;;;;5039344;28;20417;-83
2022/06/30 13:30:53;;;;;;;3.20;1.10;;;;;;;;;;5046627;28;20397;-82
2022/06/30 13:33:19;;;;;;;3.75;0.98;;;;;;;;;;5047663;28;20508;-81
2022/06/30 13:35:45;;;;;;;1.02;0.60;;;;;;;;;;5043026;28;20874;-80
2022/06/30 13:38:11;;;;;;;2.33;1.05;;;;;;;;;;5040848;28;20802;-80
2022/06/30 13:40:37;;;;;;;3.20;1.17;;;;;;;;;;5039872;28;20429;-82
2022/06/30 13:43:03;;;;;;;3.13;0.80;;;;;;;;;;5037538;28;20407;-83
2022/06/30 13:45:29;;;;;;;1.30;0.80;;;;;;;;;;5041039;28;20489;-80
2022/06/30 13:47:55;;;;;;;2.38;1.20;;;;;;;;;;5041607;28;20463;-79
2022/06/30 13:50:21;;;;;;;2.67;0.90;;;;;;;;;;5042046;28;20438;-81
2022/06/30 13:52:47;;;;;;;1.80;0.77;;;;;;;;;;5031654;28;21174;-82
2022/06/30 13:55:13;;;;;;;2.30;1.08;;;;;;;;;;5037711;28;20563;-81
2022/06/30 13:57:39;;;;;;;1.08;0.75;;;;;;;;;;5041428;28;20432;-83
2022/06/30 14:00:06;;;;;;;1.83;0.83;;;;;;;;;;5035397;28;20997;-79
2022/06/30 14:02:33;;;;;;;2.60;0.82;;;;;;;;;;5041140;28;20511;-80
2022/06/30 14:04:59;;;;;;;1.00;0.68;;;;;;;;;;5045478;28;20587;-80
2022/06/30 14:07:26;;;;;;;1.17;0.70;;;;;;;;;;5046734;28;20480;-79
2022/06/30 14:09:52;;;;;;;1.48;0.70;;;;;;;;;;5044699;28;20420;-83
2022/06/30 14:12:19;;;;;;;1.50;0.83;;;;;;;;;;5031149;28;20443;-83
2022/06/30 14:14:44;;;;;;;1.02;0.65;;;;;;;;;;5036890;28;20456;-80
2022/06/30 14:17:10;;;;;;;1.88;0.90;;;33.20;58.40;;;;;;5040094;28;20438;-82
2022/06/30 14:19:36;;;;;;;1.40;0.80;;;;;;;;;;5043985;28;20420;-78
2022/06/30 14:22:02;;;;;;;1.30;0.80;;;;;;;;;;5042080;28;20410;-81
2022/06/30 14:24:29;;;;;;;2.07;0.83;;;;;;;;;;5038733;28;20496;-82
2022/06/30 14:26:55;;;;;;;1.08;0.63;;;;;;;;;;5047814;28;20417;-79
2022/06/30 14:29:21;;;;;;;1.90;0.95;;;;;;;;;;5045749;28;20416;-80
2022/06/30 14:31:47;;;;;;;1.02;0.73;;;;;;;;;;5043334;28;20433;-80
2022/06/30 14:34:13;;;;;;;1.58;0.73;;;;;;;;;;5036791;28;20563;-79
2022/06/30 14:36:39;;;;;;;1.57;0.87;;;;;;;;;;5044095;28;20417;-80
2022/06/30 14:39:05;;;;;;;0.95;0.60;;;;;;;;;;5037166;28;20437;-81
2022/06/30 14:44:15;;;;;;;2.17;0.88;;;;;;;;;;5046019;28;21011;-80
2022/06/30 14:46:41;;;;;;;1.42;0.60;;;;;;;;;;5041262;28;20473;-82
2022/06/30 14:49:07;;;;;;;2.25;0.85;;;;;;;;;;5041067;28;21069;-82
2022/06/30 14:51:33;;;;;;;1.77;0.90;;;;;;;;;;5044810;28;20409;-81